Time;durP1;ratioP1;P1;durP2;ratioP2;P2;SDS_P1;SDS_P2;PMS_P1;PMS_P2;Temp;Humidity;BMP_temperature;BMP_pressure;BME280_temperature;BME280_humidity;BME280_pressure;Samples;Min_cycle;Max_cycle;Signal;HPM_P1;HPM_P2
2023/09/07 00:01:46;;;;;;;8.43;3.53;;;;;;;26.90;42.59;101016.16;5052978;28;20052;-63
2023/09/07 00:04:13;;;;;;;9.43;3.47;;;;;;;26.82;42.67;101014.59;5052090;28;20060;-62
2023/09/07 00:06:44;;;;;;;9.45;3.30;;;;;;;26.93;42.63;101020.16;5051484;28;20514;-62
2023/09/07 00:09:11;;;;;;;6.93;3.15;;;;;;;26.96;42.18;101011.66;5053730;28;20049;-62
2023/09/07 00:11:39;;;;;;;10.07;3.83;;;;;;;26.93;42.45;101008.84;5041431;28;20732;-62
2023/09/07 00:14:07;;;;;;;8.27;3.50;;;;;;;26.82;42.68;101011.78;5036849;28;20049;-63
2023/09/07 00:16:35;;;;;;;9.45;3.50;;;;;;;26.80;42.76;101002.91;5057753;28;20064;-63
2023/09/07 00:19:03;;;;;;;9.45;2.90;;;;;;;26.66;42.80;101002.97;5040655;28;20435;-63
2023/09/07 00:21:30;;;;;;;7.40;3.90;;;;;;;26.49;43.13;100999.09;5051934;28;20037;-64
2023/09/07 00:23:58;;;;;;;6.90;3.15;;;;;;;26.55;43.02;101000.25;5040764;28;20056;-64
2023/09/07 00:26:25;;;;;;;8.82;3.35;;;;;;;26.72;42.65;100998.53;5033484;28;20053;-63
2023/09/07 00:28:53;;;;;;;7.00;3.58;;;;;;;26.48;43.38;100996.69;5035011;28;20058;-64
2023/09/07 00:31:21;;;;;;;8.77;3.40;;;;;;;26.54;43.32;101001.47;5034707;28;20518;-66
2023/09/07 00:33:48;;;;;;;7.97;3.50;;;;;;;26.41;43.00;101008.03;5051923;28;20790;-63
2023/09/07 00:36:15;;;;;;;7.35;3.40;;;;;;;26.45;42.93;101012.44;5053689;28;20057;-63
2023/09/07 00:38:43;;;;;;;11.20;3.58;;;;;;;26.45;43.06;101012.44;5053877;28;20045;-63
2023/09/07 00:41:12;;;;;;;6.50;3.33;;;;;;;26.58;42.61;101007.09;5052398;28;20052;-63
2023/09/07 00:43:40;;;;;;;10.25;3.65;;;;;;;26.60;43.05;101005.47;5053587;28;20045;-62
2023/09/07 00:46:08;;;;;;;9.57;4.65;;;;;;;26.64;43.16;101005.41;5051755;28;20514;-63
2023/09/07 00:48:37;;;;;;;6.68;4.00;;;;;;;26.59;43.37;101008.69;5034172;28;20507;-62
2023/09/07 00:51:04;;;;;;;8.52;3.63;;;;;;;26.44;43.99;101007.19;5053254;28;20049;-62
2023/09/07 00:53:31;;;;;;;8.52;3.90;;;;;;;26.42;44.30;101007.63;5051414;28;20044;-64
2023/09/07 00:55:59;;;;;;;7.88;4.30;;;;;;;26.28;45.00;101002.06;5066674;28;20055;-64
2023/09/07 00:58:27;;;;;;;9.18;4.40;;;;;;;26.27;45.35;101008.13;5047895;28;20056;-63
2023/09/07 01:00:55;;;;;;;10.68;4.10;;;;;;;26.09;46.43;100996.13;5047190;28;20124;-63
2023/09/07 01:03:23;;;;;;;11.68;4.00;;;;;;;25.86;47.27;101002.25;5064497;28;20064;-63
2023/09/07 01:06:16;;;;;;;6.25;3.90;;;;;;;25.79;47.24;100998.66;5044684;28;20071;-65
2023/09/07 01:08:46;;;;;;;8.35;4.13;;;;;;;25.96;47.36;100994.97;5047259;28;20048;-63
2023/09/07 01:11:22;;;;;;;7.15;4.05;;;;;;;25.83;47.85;100996.63;5067329;28;20102;-62
2023/09/07 01:13:55;;;;;;;8.27;4.05;;;;;;;25.92;47.76;100997.00;5050811;28;20037;-64
2023/09/07 01:16:23;;;;;;;6.97;4.03;;;;;;;25.87;48.11;100997.41;5051138;28;20057;-64
2023/09/07 01:18:52;;;;;;;8.50;4.57;;;;;;;25.70;48.83;100992.66;5054061;28;20053;-63
2023/09/07 01:21:20;;;;;;;11.05;4.70;;;;;;;25.69;50.02;100983.38;5038093;28;20052;-63
2023/09/07 01:23:48;;;;;;;8.50;4.30;;;;;;;25.68;50.24;100993.06;5051413;28;20064;-64
2023/09/07 01:26:15;;;;;;;8.88;4.63;;;;;;;25.58;50.60;100993.09;5022807;28;20037;-64
2023/09/07 01:28:43;;;;;;;10.30;4.47;;;;;;;25.59;51.24;100987.84;5045524;28;20045;-63
2023/09/07 01:31:10;;;;;;;10.35;4.75;;;;;;;25.77;50.83;100989.81;5050797;28;20055;-65
2023/09/07 01:33:38;;;;;;;8.95;4.32;;;;;;;25.64;50.61;100988.63;5051794;28;20049;-63
2023/09/07 01:36:06;;;;;;;9.50;4.30;;;;;;;25.69;50.30;100993.84;5052533;28;20045;-63
2023/09/07 01:38:33;;;;;;;8.00;4.22;;;;;;;25.75;50.17;100989.41;5071516;28;20060;-64
2023/09/07 01:41:00;;;;;;;10.63;4.20;;;;;;;25.59;50.63;100998.34;5051076;28;20055;-65
2023/09/07 01:43:28;;;;;;;11.15;4.50;;;;;;;25.45;51.29;100987.09;5052081;28;20518;-63
2023/09/07 01:45:55;;;;;;;9.50;4.45;;;;;;;25.49;51.36;100990.69;5067237;28;20112;-64
2023/09/07 01:48:24;;;;;;;8.07;4.10;;;;;;;25.26;52.10;100993.94;5052541;28;20375;-63
2023/09/07 01:50:54;;;;;;;10.35;4.20;;;;;;;25.41;51.86;100984.28;5054718;28;20044;-65
2023/09/07 01:53:22;;;;;;;9.75;4.00;;;;;;;25.30;52.33;100988.28;5055903;28;20048;-64
2023/09/07 01:55:54;;;;;;;7.93;4.32;;;;;;;25.00;53.31;100987.97;5051547;28;20047;-64
2023/09/07 01:58:23;;;;;;;8.63;4.15;;;;;;;24.68;54.34;101002.03;5051196;28;20053;-62
2023/09/07 02:00:57;;;;;;;7.78;4.28;;;;;;;24.89;53.92;100987.16;5050557;28;20045;-63
2023/09/07 02:03:26;;;;;;;10.07;4.20;;;;;;;24.94;53.79;100990.38;5063814;28;20667;-62
2023/09/07 02:05:54;;;;;;;9.57;4.45;;;;;;;24.85;53.94;100987.16;5063043;28;20506;-63
2023/09/07 02:08:21;;;;;;;14.38;4.32;;;;;;;24.91;53.97;100990.38;5071763;28;20057;-63
2023/09/07 02:10:49;;;;;;;7.00;4.32;;;;;;;24.71;54.51;100987.16;5070642;28;20052;-63
2023/09/07 02:13:16;;;;;;;9.95;4.35;;;;;;;24.60;55.22;100985.53;5066001;28;20045;-64
2023/09/07 02:15:44;;;;;;;11.35;4.55;;;;;;;24.53;55.31;100980.69;5051289;28;20052;-63
2023/09/07 02:18:11;;;;;;;8.38;4.78;;;;;;;24.34;55.78;100987.50;5051748;28;20052;-64
2023/09/07 02:20:39;;;;;;;6.82;4.18;;;;;;;24.37;55.91;100983.88;5052836;28;20056;-64
2023/09/07 02:23:06;;;;;;;10.88;4.63;;;;;;;24.33;56.19;100987.91;5051697;28;20056;-63
2023/09/07 02:25:34;;;;;;;7.30;4.30;;;;;;;24.45;55.78;100984.72;5037690;28;20042;-64
2023/09/07 02:28:02;;;;;;;9.80;4.30;;;;;;;24.42;55.71;100983.53;5030095;28;20583;-63
2023/09/07 02:30:29;;;;;;;9.48;4.50;;;;;;;24.48;55.68;100983.91;5041860;28;20500;-63
2023/09/07 02:32:58;;;;;;;10.70;4.60;;;;;;;24.24;56.12;100991.13;5050279;28;20339;-63
2023/09/07 02:35:27;;;;;;;7.45;4.13;;;;;;;23.87;57.66;100984.94;5046312;28;20307;-64
2023/09/07 02:37:54;;;;;;;10.13;4.13;;;;;;;23.91;57.75;100984.97;5055357;28;20048;-63
2023/09/07 02:40:23;;;;;;;8.25;4.78;;;;;;;23.47;58.19;100990.03;5050269;28;20053;-63
2023/09/07 02:42:51;;;;;;;14.73;4.07;;;;;;;23.61;58.16;100990.06;5049986;28;20048;-63
2023/09/07 02:45:18;;;;;;;9.23;4.28;;;;;;;23.78;57.78;100989.34;5051406;28;20049;-63
2023/09/07 02:47:46;;;;;;;14.70;5.15;;;;;;;24.29;56.25;100984.28;5048092;28;20053;-62
2023/09/07 02:50:15;;;;;;;7.43;4.35;;;;;;;24.44;55.72;100983.91;5053380;28;20053;-64
2023/09/07 02:52:43;;;;;;;9.40;4.70;;;;;;;24.34;56.10;100984.69;5052324;28;20045;-64
2023/09/07 02:55:10;;;;;;;10.50;4.82;;;;;;;24.24;56.34;100985.50;5029781;28;20029;-63
2023/09/07 02:57:38;;;;;;;12.75;5.18;;;;;;;24.24;56.14;100982.69;5045947;28;20057;-63
2023/09/07 03:00:09;;;;;;;10.65;4.88;;;;;;;24.13;56.89;100979.03;5034563;28;20053;-62
2023/09/07 03:02:37;;;;;;;11.07;4.90;;;;;;;23.93;57.52;100983.38;5053287;28;20056;-63
2023/09/07 03:05:05;;;;;;;11.82;5.05;;;;;;;23.80;57.83;100981.31;5037675;28;20056;-63
2023/09/07 03:07:33;;;;;;;10.13;4.80;;;;;;;23.88;57.92;100980.94;5033506;28;20067;-65
2023/09/07 03:10:01;;;;;;;13.43;5.00;;;;;;;24.23;57.05;100983.09;5049749;28;20040;-63
2023/09/07 03:12:29;;;;;;;12.18;5.00;;;;;;;24.07;57.09;100972.19;5034480;28;20057;-62
2023/09/07 03:14:56;;;;;;;7.40;4.47;;;;;;;24.26;57.20;100983.09;5029667;28;20046;-63
2023/09/07 03:17:24;;;;;;;10.73;4.85;;;;;;;24.23;57.00;100978.22;5029936;28;20057;-63
2023/09/07 03:19:52;;;;;;;10.00;4.55;;;;;;;24.16;57.79;100969.00;5048663;28;20049;-65
2023/09/07 03:22:20;;;;;;;10.00;4.63;;;;;;;24.18;57.62;100969.41;5052601;28;20052;-63
2023/09/07 03:24:50;;;;;;;10.95;4.65;;;;;;;24.22;57.63;100967.38;5046303;28;20411;-63
2023/09/07 03:27:17;;;;;;;9.75;4.28;;;;;;;24.17;57.80;100974.22;5046115;28;20070;-63
2023/09/07 03:29:45;;;;;;;8.80;4.65;;;;;;;24.14;58.15;100977.84;5035696;28;20696;-63
2023/09/07 03:32:13;;;;;;;9.23;4.40;;;;;;;23.79;59.10;100977.69;5053230;28;20055;-62
2023/09/07 03:34:40;;;;;;;7.55;4.97;;;;;;;23.82;58.80;100971.28;5053430;28;20716;-63
2023/09/07 03:37:11;;;;;;;10.43;4.72;;;;;;;23.86;58.37;100966.47;5053205;28;20045;-63
2023/09/07 03:39:39;;;;;;;10.85;4.93;;;;;;;23.90;58.26;100967.25;5059871;28;20048;-62
2023/09/07 03:42:06;;;;;;;10.85;4.47;;;;;;;24.08;57.91;100958.91;5052801;28;20045;-63
2023/09/07 03:44:34;;;;;;;10.98;4.72;;;;;;;23.94;57.76;100970.09;5052807;28;20056;-64
2023/09/07 03:47:01;;;;;;;9.85;4.85;;;;;;;24.06;57.71;100967.75;5053151;28;20072;-62
2023/09/07 03:49:28;;;;;;;11.48;4.47;;;;;;;24.07;57.19;100971.38;5036081;28;20056;-63
2023/09/07 03:51:56;;;;;;;9.52;4.60;;;;;;;24.17;57.21;100965.78;5065814;28;20049;-64
2023/09/07 03:54:24;;;;;;;8.43;4.60;;;;;;;23.45;58.73;100978.34;5069870;28;20045;-63
2023/09/07 03:56:51;;;;;;;8.35;4.70;;;;;;;23.42;59.10;100983.56;5058726;28;20041;-63
2023/09/07 03:59:19;;;;;;;10.85;4.43;;;;;;;23.51;58.76;100985.19;5041798;28;20056;-63
2023/09/07 04:01:46;;;;;;;9.98;4.68;;;;;;;23.65;58.77;100986.09;5054376;28;20640;-63
2023/09/07 04:04:14;;;;;;;12.18;4.32;;;;;;;23.83;57.85;100980.53;5064360;28;20052;-63
2023/09/07 04:06:42;;;;;;;9.38;4.47;;;;;;;23.67;58.29;100974.44;5088514;28;20055;-63
2023/09/07 04:09:09;;;;;;;7.00;4.15;;;;;;;23.76;58.30;100978.50;5062365;28;20056;-63
2023/09/07 04:11:36;;;;;;;11.25;4.90;;;;;;;23.79;58.25;100974.88;5032478;28;20056;-64
2023/09/07 04:14:04;;;;;;;8.27;4.85;;;;;;;23.50;58.56;100975.97;5032446;28;20053;-63
2023/09/07 04:16:32;;;;;;;7.75;4.63;;;;;;;23.60;58.73;100972.41;5034278;28;20060;-63
2023/09/07 04:18:59;;;;;;;9.23;4.75;;;;;;;23.84;58.23;100980.13;5055940;28;20053;-63
2023/09/07 04:21:26;;;;;;;8.43;4.60;;;;;;;23.94;58.10;100976.53;5064583;28;20272;-64
2023/09/07 04:23:54;;;;;;;8.70;4.63;;;;;;;24.24;57.27;100976.22;5049266;28;20073;-63
2023/09/07 04:26:21;;;;;;;10.70;5.10;;;;;;;23.96;58.28;100974.13;5036933;28;20045;-63
2023/09/07 04:28:49;;;;;;;11.63;4.80;;;;;;;24.00;58.48;100980.63;5053226;28;20053;-63
2023/09/07 04:31:16;;;;;;;10.65;4.95;;;;;;;23.81;59.09;100980.94;5049883;28;20729;-63
2023/09/07 04:33:43;;;;;;;11.93;4.45;;;;;;;23.64;59.79;100976.00;5051268;28;20071;-63
2023/09/07 04:36:12;;;;;;;9.13;4.75;;;;;;;23.84;59.43;100980.13;5053372;28;20045;-63
2023/09/07 04:38:43;;;;;;;9.38;4.32;;;;;;;23.96;58.78;100978.94;5078073;28;20052;-63
2023/09/07 04:41:12;;;;;;;13.18;4.90;;;;;;;24.06;58.56;100973.38;5056038;28;20051;-63
2023/09/07 04:43:43;;;;;;;9.40;4.82;;;;;;;23.88;59.05;100972.50;5064346;28;20049;-63
2023/09/07 04:46:11;;;;;;;11.52;5.18;;;;;;;23.30;60.98;100975.47;5031885;28;20053;-64
2023/09/07 04:48:41;;;;;;;9.77;4.90;;;;;;;23.17;61.40;100965.72;5032271;28;20060;-63
2023/09/07 04:51:09;;;;;;;11.07;4.93;;;;;;;22.93;62.32;100976.78;5066450;28;20414;-63
2023/09/07 04:53:38;;;;;;;8.07;4.93;;;;;;;23.17;61.58;100973.34;5066714;28;20052;-63
2023/09/07 04:56:10;;;;;;;10.60;4.88;;;;;;;23.37;61.26;100974.69;5063785;28;20049;-64
2023/09/07 04:58:39;;;;;;;8.88;5.38;;;;;;;23.47;60.83;100979.56;5051360;28;20072;-63
2023/09/07 05:01:09;;;;;;;9.25;4.72;;;;;;;23.40;60.81;100982.31;5050932;28;20432;-63
2023/09/07 05:03:39;;;;;;;9.65;4.85;;;;;;;23.52;60.63;100987.59;5058567;28;20727;-63
2023/09/07 05:06:08;;;;;;;7.72;5.05;;;;;;;23.57;60.45;100983.63;5070475;28;20052;-65
2023/09/07 05:08:36;;;;;;;11.23;5.47;;;;;;;23.33;60.99;100985.09;5045386;28;20049;-63
2023/09/07 05:11:05;;;;;;;7.57;4.80;;;;;;;23.35;61.25;100994.78;5026821;28;20049;-63
2023/09/07 05:13:33;;;;;;;;;;;;;;;23.27;61.37;100992.28;5068478;28;20048;-62
2023/09/07 05:16:02;;;;;;;12.60;5.10;;;;;;;23.31;61.35;100993.94;5050594;28;20727;-65
2023/09/07 05:18:30;;;;;;;10.88;5.30;;;;;;;22.94;62.50;100998.88;5046559;28;20423;-64
2023/09/07 05:20:58;;;;;;;14.55;6.00;;;;;;;23.16;62.53;100992.22;5052251;28;20240;-64
2023/09/07 05:23:26;;;;;;;13.93;5.00;;;;;;;23.08;62.51;100996.16;5049637;28;20045;-62
2023/09/07 05:25:54;;;;;;;14.88;5.75;;;;;;;22.98;62.70;100996.91;5034462;28;20095;-63
2023/09/07 05:28:27;;;;;;;11.70;5.53;;;;;;;23.17;62.83;100993.81;5034188;28;20052;-64
2023/09/07 05:30:56;;;;;;;12.05;5.80;;;;;;;22.96;62.25;100990.84;5022904;28;20690;-63
2023/09/07 05:33:24;;;;;;;12.52;5.03;;;;;;;23.11;62.51;100986.97;5050712;28;20056;-64
2023/09/07 05:35:52;;;;;;;15.82;5.50;;;;;;;23.38;61.76;100995.97;5048536;28;20048;-63
2023/09/07 05:38:20;;;;;;;12.75;5.82;;;;;;;23.50;61.49;101006.91;5053102;28;20051;-63
2023/09/07 05:40:50;;;;;;;11.90;5.28;;;;;;;23.45;60.98;101004.44;5057708;28;20060;-63
2023/09/07 05:43:18;;;;;;;14.50;5.72;;;;;;;23.55;61.32;101000.91;5050283;28;20065;-64
2023/09/07 05:45:46;;;;;;;26.42;16.92;;;;;;;23.49;61.14;101004.47;5049106;28;20045;-64
2023/09/07 05:48:16;;;;;;;27.00;18.02;;;;;;;23.74;60.48;101006.22;5046235;28;20432;-63
2023/09/07 05:50:45;;;;;;;15.18;6.20;;;;;;;23.61;60.20;101006.94;5057297;28;20048;-68
2023/09/07 05:53:13;;;;;;;11.85;6.03;;;;;;;23.61;60.72;101006.94;5046534;28;20052;-63
2023/09/07 05:55:40;;;;;;;12.43;6.15;;;;;;;23.50;60.80;101006.91;5049004;28;20058;-63
2023/09/07 05:58:08;;;;;;;13.18;6.03;;;;;;;23.25;61.30;101001.09;5048740;28;20053;-64
2023/09/07 06:00:40;;;;;;;15.45;5.55;;;;;;;23.16;60.88;101008.25;5030818;28;20419;-64
2023/09/07 06:03:09;;;;;;;11.80;5.78;;;;;;;22.84;62.36;101008.03;5052004;28;20056;-65
2023/09/07 06:05:38;;;;;;;11.60;5.90;;;;;;;22.64;63.32;101015.09;5047148;28;20053;-63
2023/09/07 06:08:08;;;;;;;13.48;6.10;;;;;;;22.72;62.91;101013.94;5051800;28;20419;-64
2023/09/07 06:10:36;;;;;;;15.93;6.03;;;;;;;22.92;62.36;101008.88;5067264;28;20044;-64
2023/09/07 06:13:05;;;;;;;16.15;6.28;;;;;;;22.59;63.52;101011.81;5050701;28;20056;-65
2023/09/07 06:15:33;;;;;;;18.63;9.63;;;;;;;22.82;63.10;101020.84;5031606;28;20061;-64
2023/09/07 06:18:00;;;;;;;12.00;6.20;;;;;;;23.06;62.53;101021.06;5054481;28;20052;-63
2023/09/07 06:20:28;;;;;;;13.35;6.63;;;;;;;22.76;63.61;101023.22;5045658;28;20262;-63
2023/09/07 06:22:58;;;;;;;20.80;7.20;;;;;;;22.82;62.64;101027.25;5043498;28;20045;-64
2023/09/07 06:25:25;;;;;;;12.80;5.20;;;;;;;24.41;59.02;101014.88;5040852;28;20049;-52
2023/09/07 06:27:54;;;;;;;16.02;6.75;;;;;;;24.15;57.93;101024.47;5040229;28;20403;-52
2023/09/07 06:30:21;;;;;;;13.55;6.05;;;;;;;24.75;56.51;101016.16;5038944;28;20055;-51
2023/09/07 06:32:51;;;;;;;12.20;5.60;;;;;;;25.12;55.69;101013.72;5043834;28;20063;-53
2023/09/07 06:35:18;;;;;;;19.35;6.80;;;;;;;23.90;55.25;101017.13;5037838;28;20562;-55
2023/09/07 06:37:47;;;;;;;21.65;6.72;;;;;;;23.40;56.98;101011.25;5034370;28;20053;-53
2023/09/07 06:40:17;;;;;;;18.02;6.35;;;;;;;23.32;57.01;101014.44;5053072;28;20053;-55
2023/09/07 06:42:48;;;;;;;16.17;6.45;;;;;;;22.91;57.94;101019.31;5038655;28;20081;-55
2023/09/07 06:45:19;;;;;;;14.15;6.45;;;;;;;22.70;58.66;101018.34;5042705;28;20479;-55
2023/09/07 06:47:49;;;;;;;13.10;6.78;;;;;;;22.36;59.82;101020.41;5040066;28;20060;-53
2023/09/07 06:50:19;;;;;;;18.08;7.05;;;;;;;22.37;60.27;101027.59;5036706;28;20060;-54
2023/09/07 06:52:46;;;;;;;15.30;6.57;;;;;;;22.29;60.51;101020.31;5039571;28;20052;-55
2023/09/07 06:55:14;;;;;;;16.95;6.63;;;;;;;22.75;59.14;101026.41;5049064;28;20045;-52
2023/09/07 06:57:42;;;;;;;22.33;8.82;;;;;;;22.21;60.90;101022.22;5045402;28;20044;-53
2023/09/07 07:00:11;;;;;;;15.43;7.43;;;;;;;22.55;60.38;101030.63;5043982;28;20060;-52
2023/09/07 07:02:39;;;;;;;17.35;7.25;;;;;;;22.78;59.43;101032.06;5040685;28;20059;-55
2023/09/07 07:05:08;;;;;;;17.60;7.25;;;;;;;23.01;58.37;101035.44;5053726;28;20052;-55
2023/09/07 07:07:36;;;;;;;21.20;6.95;;;;;;;22.86;59.26;101033.72;5042864;28;20049;-51
2023/09/07 07:10:04;;;;;;;19.52;7.70;;;;;;;23.03;58.44;101030.25;5027960;28;20102;-53
2023/09/07 07:12:37;;;;;;;26.67;7.68;;;;;;;22.62;59.40;101030.69;5046545;28;20064;-55
2023/09/07 07:15:07;;;;;;;21.15;7.05;;;;;;;22.95;58.77;101028.59;5040147;28;20514;-53
2023/09/07 07:17:35;;;;;;;14.32;7.28;;;;;;;22.55;59.77;101022.19;5060343;28;20052;-54
2023/09/07 07:20:03;;;;;;;17.38;7.22;;;;;;;22.53;60.18;101027.34;5048000;28;20049;-54
2023/09/07 07:22:35;;;;;;;13.95;6.63;;;;;;;22.63;60.10;101023.91;5055560;28;20048;-54
2023/09/07 07:25:05;;;;;;;16.80;6.63;;;;;;;23.23;58.23;101019.56;5048295;28;20053;-53
2023/09/07 07:27:33;;;;;;;18.67;7.22;;;;;;;23.31;57.48;101021.22;5045288;28;20056;-53
2023/09/07 07:30:01;;;;;;;16.70;7.20;;;;;;;23.14;58.27;101027.50;5023864;28;20054;-53
2023/09/07 07:32:29;;;;;;;19.27;7.72;;;;;;;23.54;57.07;101018.97;5046072;28;20400;-53
2023/09/07 07:34:57;;;;;;;16.20;7.00;;;;;;;23.56;56.89;101027.00;5045945;28;20048;-55
2023/09/07 07:37:25;;;;;;;24.73;7.88;;;;;;;23.47;56.88;101024.53;5047789;28;20045;-56
2023/09/07 07:39:52;;;;;;;26.33;7.28;;;;;;;23.35;57.25;101017.25;5042964;28;20057;-56
2023/09/07 07:42:20;;;;;;;14.35;7.28;;;;;;;23.64;56.78;101023.03;5042972;28;20048;-55
2023/09/07 07:44:48;;;;;;;20.25;7.50;;;;;;;23.64;56.47;101029.44;5058495;28;20057;-54
2023/09/07 07:47:16;;;;;;;13.90;7.20;;;;;;;23.57;56.44;101028.63;5041199;28;20044;-54
2023/09/07 07:49:44;;;;;;;16.80;7.35;;;;;;;23.34;57.01;101026.09;5040094;28;20053;-52
2023/09/07 07:52:12;;;;;;;18.33;7.57;;;;;;;23.43;57.04;101024.53;5048968;28;20041;-54
2023/09/07 07:54:40;;;;;;;17.85;8.13;;;;;;;23.32;57.30;101025.66;5054112;28;20052;-53
2023/09/07 07:57:08;;;;;;;17.05;7.95;;;;;;;23.64;56.67;101025.84;5045717;28;20043;-52
2023/09/07 07:59:35;;;;;;;22.73;6.63;;;;;;;23.95;55.83;101026.00;5048045;28;20084;-54
2023/09/07 08:02:03;;;;;;;17.17;6.72;;;;;;;24.18;54.92;101029.31;5050468;28;20049;-55
2023/09/07 08:04:32;;;;;;;13.32;6.72;;;;;;;24.04;55.52;101026.44;5047281;28;20052;-56
2023/09/07 08:07:03;;;;;;;17.92;6.97;;;;;;;24.53;54.18;101025.75;5035952;28;20756;-54
2023/09/07 08:09:32;;;;;;;11.30;6.10;;;;;;;24.60;53.62;101025.75;5057691;28;20052;-55
2023/09/07 08:12:03;;;;;;;18.95;6.20;;;;;;;24.93;52.57;101021.81;5039212;28;20057;-53
2023/09/07 08:14:33;;;;;;;14.35;6.70;;;;;;;24.78;52.83;101023.81;5033023;28;20060;-55
2023/09/07 08:17:02;;;;;;;12.75;7.22;;;;;;;24.36;54.21;101023.72;5040821;28;20060;-56
2023/09/07 08:19:32;;;;;;;16.17;6.68;;;;;;;24.51;54.08;101028.97;5033417;28;20057;-55
2023/09/07 08:22:04;;;;;;;12.23;6.50;;;;;;;24.84;52.88;101027.03;5046164;28;20598;-53
2023/09/07 08:24:32;;;;;;;14.65;6.70;;;;;;;25.00;51.70;101027.44;5054711;28;20053;-53
2023/09/07 08:27:01;;;;;;;20.93;7.63;;;;;;;25.03;51.71;101033.06;5050541;28;20491;-54
2023/09/07 08:29:32;;;;;;;15.45;6.60;;;;;;;25.35;50.98;101024.56;5043515;28;20049;-52
2023/09/07 08:32:03;;;;;;;19.83;7.82;;;;;;;24.33;53.32;101024.53;5045511;28;20052;-53
2023/09/07 08:34:31;;;;;;;18.65;7.68;;;;;;;24.28;53.90;101030.56;5047671;28;20052;-55
2023/09/07 08:36:59;;;;;;;22.20;7.65;;;;;;;24.29;54.34;101021.69;5044824;28;20052;-52
2023/09/07 08:39:27;;;;;;;15.77;7.15;;;;;;;24.54;53.74;101024.56;5048443;28;20053;-54
2023/09/07 08:41:58;;;;;;;20.48;7.90;;;;;;;24.67;52.94;101019.34;5045397;28;20471;-54
2023/09/07 08:44:29;;;;;;;19.42;8.35;;;;;;;24.84;52.30;101021.41;5046916;28;20424;-54
2023/09/07 08:46:57;;;;;;;13.00;7.60;;;;;;;24.75;52.77;101010.53;5050197;28;20802;-60
2023/09/07 08:49:24;;;;;;;22.10;8.85;;;;;;;24.67;53.11;101013.72;5044248;28;20049;-57
2023/09/07 08:51:53;;;;;;;20.63;9.15;;;;;;;24.67;52.81;101010.91;5042109;28;20502;-55
2023/09/07 08:54:22;;;;;;;15.32;8.27;;;;;;;24.88;52.17;101006.09;5046640;28;20056;-57
2023/09/07 08:56:50;;;;;;;20.60;7.55;;;;;;;24.90;52.40;101002.84;5053282;28;20049;-57
2023/09/07 08:59:17;;;;;;;22.48;7.40;;;;;;;24.80;52.92;101009.31;5043007;28;20045;-55
2023/09/07 09:01:45;;;;;;;20.58;8.38;;;;;;;24.49;53.28;101000.44;5048716;28;20060;-56
2023/09/07 09:04:13;;;;;;;14.07;7.00;;;;;;;24.56;53.55;100998.81;5058482;28;20045;-53
2023/09/07 09:06:41;;;;;;;17.13;7.18;;;;;;;24.80;53.43;100995.22;5055774;28;20068;-56
2023/09/07 09:09:08;;;;;;;25.63;7.65;;;;;;;24.78;52.36;100998.44;5061475;28;20155;-56
2023/09/07 09:11:36;;;;;;;16.60;7.10;;;;;;;24.72;52.69;100996.44;5062787;28;20049;-56
2023/09/07 09:14:05;;;;;;;28.80;7.95;;;;;;;24.78;52.36;101004.06;5039066;28;20045;-57
2023/09/07 09:16:32;;;;;;;17.67;7.13;;;;;;;24.66;52.73;100995.19;5041185;28;20333;-56
2023/09/07 09:19:00;;;;;;;17.77;7.18;;;;;;;24.61;52.88;100998.41;5041020;28;20048;-53
2023/09/07 09:21:27;;;;;;;18.83;7.15;;;;;;;24.85;52.44;101001.25;5053391;28;20056;-53
2023/09/07 09:23:57;;;;;;;22.15;7.05;;;;;;;25.19;51.64;101002.41;5046451;28;20045;-54
2023/09/07 09:26:24;;;;;;;15.30;7.30;;;;;;;25.24;51.65;100998.41;5041547;28;20041;-56
2023/09/07 09:28:56;;;;;;;28.58;7.55;;;;;;;25.51;50.77;101000.38;5045160;28;20041;-55
2023/09/07 09:31:24;;;;;;;20.02;7.38;;;;;;;25.48;50.61;101006.03;5042142;28;20049;-52
2023/09/07 09:33:53;;;;;;;19.55;6.97;;;;;;;25.66;50.29;101003.97;5039556;28;20585;-54
2023/09/07 09:36:21;;;;;;;25.40;6.68;;;;;;;26.00;49.09;101007.81;5044557;28;20277;-58
2023/09/07 09:38:50;;;;;;;15.30;7.00;;;;;;;25.46;50.32;101011.25;5044486;28;20060;-56
2023/09/07 09:41:17;;;;;;;19.60;7.75;;;;;;;25.56;50.39;100999.13;5045516;28;20048;-54
2023/09/07 09:43:51;;;;;;;20.92;6.55;;;;;;;25.58;50.06;101001.56;5042695;28;20061;-55
2023/09/07 09:46:19;;;;;;;18.52;7.10;;;;;;;25.28;51.55;101008.44;5026392;28;20059;-55
2023/09/07 09:48:48;;;;;;;17.38;7.40;;;;;;;25.43;50.99;101001.63;5038624;28;22071;-52
2023/09/07 09:51:16;;;;;;;18.05;7.80;;;;;;;25.65;49.92;100995.91;5046999;28;20049;-55
2023/09/07 09:53:44;;;;;;;19.58;7.20;;;;;;;25.95;49.42;101004.63;5040855;28;20056;-56
2023/09/07 09:56:11;;;;;;;25.83;7.72;;;;;;;25.77;48.91;101006.75;5041876;28;20052;-54
2023/09/07 09:58:39;;;;;;;20.85;7.65;;;;;;;25.76;49.52;101003.09;5043734;28;20037;-56
2023/09/07 10:01:07;;;;;;;14.65;7.07;;;;;;;25.89;48.95;101009.09;5045150;28;20059;-53
2023/09/07 10:03:45;;;;;;;25.80;7.72;;;;;;;26.25;48.43;101002.88;5054425;28;20052;-58
2023/09/07 10:06:22;;;;;;;25.42;6.97;;;;;;;26.32;48.26;100997.19;5036310;28;20057;-58
2023/09/07 10:08:53;;;;;;;15.15;7.25;;;;;;;26.50;47.68;100995.03;5038079;28;20061;-58
2023/09/07 10:11:33;;;;;;;13.93;7.07;;;;;;;26.67;47.51;101001.81;5046797;28;20060;-55
2023/09/07 10:14:05;;;;;;;19.30;6.95;;;;;;;26.47;47.35;100995.88;5041129;28;20435;-67
2023/09/07 10:16:43;;;;;;;18.65;7.72;;;;;;;26.44;47.78;100993.88;5042039;28;20060;-65
2023/09/07 10:19:24;;;;;;;12.77;7.00;;;;;;;26.65;47.20;100993.72;5043130;28;20069;-64
2023/09/07 10:21:53;;;;;;;19.95;7.40;;;;;;;26.53;47.71;100991.41;5042237;28;20056;-66
2023/09/07 10:24:25;;;;;;;18.40;7.50;;;;;;;26.35;48.30;100995.53;5040018;28;20049;-64
2023/09/07 10:27:00;;;;;;;19.38;7.80;;;;;;;26.48;48.03;100986.16;5045270;28;20068;-64
2023/09/07 10:29:52;;;;;;;27.15;7.65;;;;;;;26.39;47.68;100991.50;5034442;28;20049;-65
2023/09/07 10:32:23;;;;;;;17.95;7.78;;;;;;;26.39;47.64;100988.69;5047053;28;20041;-66
2023/09/07 10:34:50;;;;;;;20.00;7.45;;;;;;;26.54;47.71;100987.34;5042248;28;20585;-65
2023/09/07 10:37:19;;;;;;;21.35;8.02;;;;;;;26.59;48.16;100983.25;5046154;28;20702;-66
2023/09/07 10:39:46;;;;;;;22.35;7.70;;;;;;;26.78;47.17;100984.78;5045468;28;20059;-66
2023/09/07 10:42:23;;;;;;;20.38;7.50;;;;;;;27.08;46.38;100994.16;5050850;28;20049;-66
2023/09/07 10:44:52;;;;;;;21.40;7.95;;;;;;;27.03;46.76;100974.03;5048639;28;20558;-67
2023/09/07 10:47:19;;;;;;;18.35;7.38;;;;;;;27.10;46.44;100973.94;5047936;28;20060;-70
2023/09/07 10:49:47;;;;;;;19.13;7.25;;;;;;;27.28;46.08;100971.75;5050552;28;20049;-68
2023/09/07 10:52:15;;;;;;;17.70;8.18;;;;;;;27.65;45.16;100972.53;5058971;28;20059;-67
2023/09/07 10:54:43;;;;;;;16.20;7.05;;;;;;;27.82;44.58;100975.56;5044495;28;20049;-65
2023/09/07 10:57:17;;;;;;;21.27;7.18;;;;;;;27.97;44.42;100972.16;5049016;28;20503;-69
2023/09/07 10:59:45;;;;;;;17.98;6.78;;;;;;;27.41;45.60;100967.97;5043977;28;20041;-70
2023/09/07 11:02:15;;;;;;;25.35;7.57;;;;;;;27.35;45.52;100969.69;5047498;28;20443;-68
2023/09/07 11:04:43;;;;;;;17.40;7.05;;;;;;;27.43;45.03;100959.06;5045081;28;20561;-67
2023/09/07 11:07:10;;;;;;;17.08;6.80;;;;;;;27.49;44.76;100958.19;5046580;28;20048;-67
2023/09/07 11:09:44;;;;;;;18.55;6.70;;;;;;;27.69;44.58;100961.97;5049923;28;20048;-68
2023/09/07 11:12:15;;;;;;;17.40;8.88;;;;;;;27.72;44.45;100957.50;5050045;28;20057;-65
2023/09/07 11:14:43;;;;;;;17.58;7.03;;;;;;;28.10;44.22;100964.69;5049642;28;20049;-66
2023/09/07 11:17:11;;;;;;;14.35;6.15;;;;;;;28.19;43.62;100964.94;5048998;28;20041;-64
2023/09/07 11:19:38;;;;;;;16.08;6.00;;;;;;;28.46;43.14;100960.09;5050538;28;20048;-65
2023/09/07 11:22:09;;;;;;;20.45;6.15;;;;;;;28.46;42.82;100962.09;5042906;28;20531;-65
2023/09/07 11:24:37;;;;;;;11.60;5.60;;;;;;;28.47;42.86;100963.72;5037216;28;20065;-66
2023/09/07 11:27:04;;;;;;;9.95;5.60;;;;;;;28.34;42.84;100971.22;5041918;28;20053;-66